Tlc Commander — WCY6477 — position and weather

sailwx.info

Track history (hours):
 
Tides and Currents Weather Stations Pressure Air Temp Water Temp Dewpoint Dewpoint Depression Visibility Wind Speed Wind Dir Waves Ship Positions

Tlc Commander

Owner: TLC MARINE SERVICE INC, LOCKPORT, LA. More information available from US FCC via Universal Licensing System and Coast Guard Vessel Documentation Center.

Last reported at 2018-Feb-20 01:21 UTC. Time now 2018-Feb-20 19:44 UTC.
Position N 30°23' W 086°43'.

; draft 5.5 m.

Type: Tug. MMSI: 367006040.

Date/timePositionNaut miles runAvg speedWind from/ knotsBaromVisibWave heightAir tempDewpointWater temp
2018-Feb-20 01:21N 30°23' W 086°43'2 5.3
2018-Feb-20 00:59N 30°22' W 086°46'2 5.0
2018-Feb-20 00:30N 30°23' W 086°49'3 5.2
2018-Feb-19 23:59N 30°22' W 086°52'195 4.0
2018-Feb-17 23:36N 29°34' W 090°29'1 8.0
2018-Feb-17 23:29N 29°34' W 090°30'4 8.0
2018-Feb-17 22:58N 29°35' W 090°35'4 7.5
2018-Feb-17 22:29N 29°36' W 090°39'3 6.8
2018-Feb-17 22:00N 29°36' W 090°43'2 3.2
2018-Feb-17 21:30N 29°35' W 090°43'1 1.6
2018-Feb-17 21:00N 29°34' W 090°43'1 1.7
2018-Feb-17 20:30N 29°33' W 090°42'0 0.8
2018-Feb-17 20:00N 29°34' W 090°42'0 0.0
2018-Feb-17 19:30N 29°34' W 090°42'0 0.0
2018-Feb-17 19:00N 29°34' W 090°42'0 0.0
2018-Feb-17 18:30N 29°34' W 090°42'0 0.0
2018-Feb-17 18:00N 29°34' W 090°42'0 0.0
2018-Feb-17 17:30N 29°34' W 090°42'0 0.0
2018-Feb-17 17:00N 29°34' W 090°42'0 0.0
2018-Feb-17 16:30N 29°34' W 090°42'0 0.0
2018-Feb-17 16:00N 29°34' W 090°42'0 0.0
2018-Feb-17 15:30N 29°34' W 090°42'0 0.0
2018-Feb-17 15:00N 29°34' W 090°42'0 0.0
2018-Feb-17 14:30N 29°34' W 090°42'0 0.0
2018-Feb-17 14:00N 29°34' W 090°42'0 0.0
2018-Feb-17 13:30N 29°34' W 090°42'0 0.0
2018-Feb-17 13:00N 29°34' W 090°42'0 0.0
2018-Feb-17 12:30N 29°34' W 090°42'0 0.0
2018-Feb-17 12:00N 29°34' W 090°42'0 0.0
2018-Feb-17 11:30N 29°34' W 090°42'0 0.0
2018-Feb-17 11:00N 29°34' W 090°42'0 0.0
2018-Feb-17 10:30N 29°34' W 090°42'0 0.0
2018-Feb-17 10:00N 29°34' W 090°42'0 0.0
2018-Feb-17 09:30N 29°34' W 090°42'0 0.0
2018-Feb-17 09:00N 29°34' W 090°42'0 0.0
2018-Feb-17 08:30N 29°34' W 090°42'0 0.0
2018-Feb-17 08:00N 29°34' W 090°42'0 0.0
2018-Feb-17 07:30N 29°34' W 090°42'0 0.0
2018-Feb-17 07:00N 29°34' W 090°42'0 0.0
2018-Feb-17 06:30N 29°34' W 090°42'0 0.0
2018-Feb-17 06:00N 29°34' W 090°42'0 0.0
2018-Feb-17 05:30N 29°34' W 090°42'0 0.0
2018-Feb-17 05:00N 29°34' W 090°42'0 0.0
2018-Feb-17 04:30N 29°34' W 090°42'0 0.0
2018-Feb-17 04:00N 29°34' W 090°42'0 0.0
2018-Feb-17 03:30N 29°34' W 090°42'0 0.0
2018-Feb-17 03:00N 29°34' W 090°42'0 0.0
2018-Feb-17 02:30N 29°34' W 090°42'0 0.0
2018-Feb-17 02:00N 29°34' W 090°42'2 3.8
2018-Feb-17 01:30N 29°32' W 090°42'4 7.7
2018-Feb-17 01:00N 29°28' W 090°43'4 7.6
2018-Feb-17 00:29N 29°24' W 090°44'1 0.1
2018-Feb-16 11:43N 29°26' W 090°43'2 8.1
2018-Feb-16 11:31N 29°27' W 090°43'4 8.1
2018-Feb-16 11:01N 29°31' W 090°42'3 5.0
2018-Feb-16 10:30N 29°34' W 090°42'0 0.0
2018-Feb-16 10:00N 29°34' W 090°42'0 0.0
2018-Feb-16 09:30N 29°34' W 090°42'0 0.0
2018-Feb-16 09:00N 29°34' W 090°42'0 0.0
2018-Feb-16 08:30N 29°34' W 090°42'0 0.0
2018-Feb-16 08:00N 29°34' W 090°42'0 0.0
2018-Feb-16 07:30N 29°34' W 090°42'0 0.0
2018-Feb-16 07:00N 29°34' W 090°42'0 0.0
2018-Feb-16 06:31N 29°34' W 090°42'0 0.0
2018-Feb-16 06:01N 29°34' W 090°42'0 0.0
2018-Feb-16 05:31N 29°34' W 090°42'0 0.0
2018-Feb-16 05:00N 29°34' W 090°42'0 0.0
2018-Feb-16 04:30N 29°34' W 090°42'0 0.0
2018-Feb-16 04:00N 29°34' W 090°42'2 3.4
2018-Feb-16 03:31N 29°35' W 090°43'4 7.6
2018-Feb-16 03:00N 29°33' W 090°46'4 8.1
2018-Feb-16 02:30N 29°32' W 090°50'0 0.0
2018-Feb-14 23:22N 29°32' W 090°50'3 7.6
2018-Feb-14 23:00N 29°32' W 090°47'3 6.4
2018-Feb-14 22:30N 29°34' W 090°44'3 6.1
2018-Feb-14 22:01N 29°37' W 090°42'1 1.6
2018-Feb-14 21:31N 29°37' W 090°41'0 0.0
2018-Feb-14 20:58N 29°37' W 090°41'1 2.1
2018-Feb-14 20:31N 29°36' W 090°43'3 6.3
2018-Feb-14 20:01N 29°33' W 090°43'0 0.9
2018-Feb-14 19:30N 29°33' W 090°42'1 2.7
2018-Feb-14 19:00N 29°34' W 090°43'1 1.5
2018-Feb-14 18:31N 29°35' W 090°43'0 0.0
2018-Feb-14 18:00N 29°35' W 090°43'0 0.0
2018-Feb-14 17:31N 29°35' W 090°43'1 1.1
2018-Feb-14 17:00N 29°35' W 090°43'2 3.3
2018-Feb-14 16:30N 29°37' W 090°42'0 0.0
2018-Feb-14 16:01N 29°37' W 090°42'0 0.0
2018-Feb-14 15:31N 29°37' W 090°42'0 0.0
2018-Feb-14 15:01N 29°37' W 090°42'3 5.7
2018-Feb-14 14:31N 29°34' W 090°43'1 1.2
2018-Feb-14 14:01N 29°34' W 090°42'0 0.0
2018-Feb-14 13:31N 29°34' W 090°42'0 0.0
2018-Feb-14 13:01N 29°34' W 090°42'0 0.0
2018-Feb-14 12:30N 29°34' W 090°42'0 0.0
2018-Feb-14 12:00N 29°34' W 090°42'0 0.0
2018-Feb-14 11:30N 29°34' W 090°42'0 0.0
2018-Feb-14 11:01N 29°34' W 090°42'0 0.0
2018-Feb-14 10:30N 29°34' W 090°42'0 0.0
2018-Feb-14 10:01N 29°34' W 090°42'0 0.0
2018-Feb-14 09:30N 29°34' W 090°42'0 0.0
2018-Feb-14 09:00N 29°34' W 090°42'0 0.0
2018-Feb-14 08:31N 29°34' W 090°42'0 0.0
2018-Feb-14 08:01N 29°34' W 090°42'0 0.0
2018-Feb-14 07:30N 29°34' W 090°42'0 0.0
2018-Feb-14 07:00N 29°34' W 090°42'0 0.0
2018-Feb-14 06:30N 29°34' W 090°42'0 0.0
2018-Feb-14 06:01N 29°34' W 090°42'0 0.0
2018-Feb-14 05:30N 29°34' W 090°42'0 0.0
2018-Feb-14 05:00N 29°34' W 090°42'0 0.0
2018-Feb-14 04:31N 29°34' W 090°42'0 0.0
2018-Feb-14 04:00N 29°34' W 090°42'0 0.0
2018-Feb-14 03:31N 29°34' W 090°42'0 0.0
2018-Feb-14 03:00N 29°34' W 090°42'0 0.0
2018-Feb-14 02:30N 29°34' W 090°42'0 0.0
2018-Feb-14 02:00N 29°34' W 090°42'0 0.0
2018-Feb-14 01:31N 29°34' W 090°42'0 0.0
2018-Feb-14 01:00N 29°34' W 090°42'0 0.0
2018-Feb-14 00:31N 29°34' W 090°42'0 0.0
2018-Feb-14 00:00N 29°34' W 090°42'0 0.0
2018-Feb-13 23:30N 29°34' W 090°42'0 0.0
2018-Feb-13 23:01N 29°34' W 090°42'0 0.0
2018-Feb-13 22:30N 29°34' W 090°42'0 0.0
2018-Feb-13 22:00N 29°34' W 090°42'0 0.0
2018-Feb-13 21:31N 29°34' W 090°42'0 0.0
2018-Feb-13 21:00N 29°34' W 090°42'0 0.0
2018-Feb-13 20:30N 29°34' W 090°42'0 0.0
2018-Feb-13 20:01N 29°34' W 090°42'0 0.0
2018-Feb-13 19:30N 29°34' W 090°42'0 0.0
2018-Feb-13 19:00N 29°34' W 090°42'0 0.0
2018-Feb-13 18:30N 29°34' W 090°42'0 0.0
2018-Feb-13 18:00N 29°34' W 090°42'0 0.0
2018-Feb-13 17:31N 29°34' W 090°42'0 0.0
2018-Feb-13 17:01N 29°34' W 090°42'0 0.0
2018-Feb-13 16:30N 29°34' W 090°42'0 0.0
2018-Feb-13 16:01N 29°34' W 090°42'1 2.5
2018-Feb-13 15:30N 29°33' W 090°42'0 0.0
2018-Feb-13 15:00N 29°33' W 090°42'0 0.4
2018-Feb-13 14:30N 29°32' W 090°42'1 2.2
2018-Feb-13 14:00N 29°33' W 090°42'0 0.7
2018-Feb-13 13:31N 29°34' W 090°42'1 1.4
2018-Feb-13 13:00N 29°34' W 090°43'3 5.5
2018-Feb-13 12:30N 29°37' W 090°41'4 7.7
2018-Feb-13 12:01N 29°35' W 090°38'4 7.5
2018-Feb-13 11:30N 29°34' W 090°33'  
Track history (hours):
 
Tides and Currents Weather Stations Pressure Air Temp Water Temp Dewpoint Dewpoint Depression Visibility Wind Speed Wind Dir Waves Ship Positions

Tlc Commander

Owner: TLC MARINE SERVICE INC, LOCKPORT, LA. More information available from US FCC via Universal Licensing System and Coast Guard Vessel Documentation Center.

Last reported at 2018-Feb-20 01:21 UTC. Time now 2018-Feb-20 19:44 UTC.
Position N 30°23' W 086°43'.

; draft 5.5 m.

Type: Tug. MMSI: 367006040.

Date/timePositionNaut miles runAvg speedWind from/ knotsBaromVisibWave heightAir tempDewpointWater temp
2018-Feb-20 01:21N 30°23' W 086°43'2 5.3
2018-Feb-20 00:59N 30°22' W 086°46'2 5.0
2018-Feb-20 00:30N 30°23' W 086°49'3 5.2
2018-Feb-19 23:59N 30°22' W 086°52'195 4.0
2018-Feb-17 23:36N 29°34' W 090°29'1 8.0
2018-Feb-17 23:29N 29°34' W 090°30'4 8.0
2018-Feb-17 22:58N 29°35' W 090°35'4 7.5
2018-Feb-17 22:29N 29°36' W 090°39'3 6.8
2018-Feb-17 22:00N 29°36' W 090°43'2 3.2
2018-Feb-17 21:30N 29°35' W 090°43'1 1.6
2018-Feb-17 21:00N 29°34' W 090°43'1 1.7
2018-Feb-17 20:30N 29°33' W 090°42'0 0.8
2018-Feb-17 20:00N 29°34' W 090°42'0 0.0
2018-Feb-17 19:30N 29°34' W 090°42'0 0.0
2018-Feb-17 19:00N 29°34' W 090°42'0 0.0
2018-Feb-17 18:30N 29°34' W 090°42'0 0.0
2018-Feb-17 18:00N 29°34' W 090°42'0 0.0
2018-Feb-17 17:30N 29°34' W 090°42'0 0.0
2018-Feb-17 17:00N 29°34' W 090°42'0 0.0
2018-Feb-17 16:30N 29°34' W 090°42'0 0.0
2018-Feb-17 16:00N 29°34' W 090°42'0 0.0
2018-Feb-17 15:30N 29°34' W 090°42'0 0.0
2018-Feb-17 15:00N 29°34' W 090°42'0 0.0
2018-Feb-17 14:30N 29°34' W 090°42'0 0.0
2018-Feb-17 14:00N 29°34' W 090°42'0 0.0
2018-Feb-17 13:30N 29°34' W 090°42'0 0.0
2018-Feb-17 13:00N 29°34' W 090°42'0 0.0
2018-Feb-17 12:30N 29°34' W 090°42'0 0.0
2018-Feb-17 12:00N 29°34' W 090°42'0 0.0
2018-Feb-17 11:30N 29°34' W 090°42'0 0.0
2018-Feb-17 11:00N 29°34' W 090°42'0 0.0
2018-Feb-17 10:30N 29°34' W 090°42'0 0.0
2018-Feb-17 10:00N 29°34' W 090°42'0 0.0
2018-Feb-17 09:30N 29°34' W 090°42'0 0.0
2018-Feb-17 09:00N 29°34' W 090°42'0 0.0
2018-Feb-17 08:30N 29°34' W 090°42'0 0.0
2018-Feb-17 08:00N 29°34' W 090°42'0 0.0
2018-Feb-17 07:30N 29°34' W 090°42'0 0.0
2018-Feb-17 07:00N 29°34' W 090°42'0 0.0
2018-Feb-17 06:30N 29°34' W 090°42'0 0.0
2018-Feb-17 06:00N 29°34' W 090°42'0 0.0
2018-Feb-17 05:30N 29°34' W 090°42'0 0.0
2018-Feb-17 05:00N 29°34' W 090°42'0 0.0
2018-Feb-17 04:30N 29°34' W 090°42'0 0.0
2018-Feb-17 04:00N 29°34' W 090°42'0 0.0
2018-Feb-17 03:30N 29°34' W 090°42'0 0.0
2018-Feb-17 03:00N 29°34' W 090°42'0 0.0
2018-Feb-17 02:30N 29°34' W 090°42'0 0.0
2018-Feb-17 02:00N 29°34' W 090°42'2 3.8
2018-Feb-17 01:30N 29°32' W 090°42'4 7.7
2018-Feb-17 01:00N 29°28' W 090°43'4 7.6
2018-Feb-17 00:29N 29°24' W 090°44'1 0.1
2018-Feb-16 11:43N 29°26' W 090°43'2 8.1
2018-Feb-16 11:31N 29°27' W 090°43'4 8.1
2018-Feb-16 11:01N 29°31' W 090°42'3 5.0
2018-Feb-16 10:30N 29°34' W 090°42'0 0.0
2018-Feb-16 10:00N 29°34' W 090°42'0 0.0
2018-Feb-16 09:30N 29°34' W 090°42'0 0.0
2018-Feb-16 09:00N 29°34' W 090°42'0 0.0
2018-Feb-16 08:30N 29°34' W 090°42'0 0.0
2018-Feb-16 08:00N 29°34' W 090°42'0 0.0
2018-Feb-16 07:30N 29°34' W 090°42'0 0.0
2018-Feb-16 07:00N 29°34' W 090°42'0 0.0
2018-Feb-16 06:31N 29°34' W 090°42'0 0.0
2018-Feb-16 06:01N 29°34' W 090°42'0 0.0
2018-Feb-16 05:31N 29°34' W 090°42'0 0.0
2018-Feb-16 05:00N 29°34' W 090°42'0 0.0
2018-Feb-16 04:30N 29°34' W 090°42'0 0.0
2018-Feb-16 04:00N 29°34' W 090°42'2 3.4
2018-Feb-16 03:31N 29°35' W 090°43'4 7.6
2018-Feb-16 03:00N 29°33' W 090°46'4 8.1
2018-Feb-16 02:30N 29°32' W 090°50'0 0.0
2018-Feb-14 23:22N 29°32' W 090°50'3 7.6
2018-Feb-14 23:00N 29°32' W 090°47'3 6.4
2018-Feb-14 22:30N 29°34' W 090°44'3 6.1
2018-Feb-14 22:01N 29°37' W 090°42'1 1.6
2018-Feb-14 21:31N 29°37' W 090°41'0 0.0
2018-Feb-14 20:58N 29°37' W 090°41'1 2.1
2018-Feb-14 20:31N 29°36' W 090°43'3 6.3
2018-Feb-14 20:01N 29°33' W 090°43'0 0.9
2018-Feb-14 19:30N 29°33' W 090°42'1 2.7
2018-Feb-14 19:00N 29°34' W 090°43'1 1.5
2018-Feb-14 18:31N 29°35' W 090°43'0 0.0
2018-Feb-14 18:00N 29°35' W 090°43'0 0.0
2018-Feb-14 17:31N 29°35' W 090°43'1 1.1
2018-Feb-14 17:00N 29°35' W 090°43'2 3.3
2018-Feb-14 16:30N 29°37' W 090°42'0 0.0
2018-Feb-14 16:01N 29°37' W 090°42'0 0.0
2018-Feb-14 15:31N 29°37' W 090°42'0 0.0
2018-Feb-14 15:01N 29°37' W 090°42'3 5.7
2018-Feb-14 14:31N 29°34' W 090°43'1 1.2
2018-Feb-14 14:01N 29°34' W 090°42'0 0.0
2018-Feb-14 13:31N 29°34' W 090°42'0 0.0
2018-Feb-14 13:01N 29°34' W 090°42'0 0.0
2018-Feb-14 12:30N 29°34' W 090°42'0 0.0
2018-Feb-14 12:00N 29°34' W 090°42'0 0.0
2018-Feb-14 11:30N 29°34' W 090°42'0 0.0
2018-Feb-14 11:01N 29°34' W 090°42'0 0.0
2018-Feb-14 10:30N 29°34' W 090°42'0 0.0
2018-Feb-14 10:01N 29°34' W 090°42'0 0.0
2018-Feb-14 09:30N 29°34' W 090°42'0 0.0
2018-Feb-14 09:00N 29°34' W 090°42'0 0.0
2018-Feb-14 08:31N 29°34' W 090°42'0 0.0
2018-Feb-14 08:01N 29°34' W 090°42'0 0.0
2018-Feb-14 07:30N 29°34' W 090°42'0 0.0
2018-Feb-14 07:00N 29°34' W 090°42'0 0.0
2018-Feb-14 06:30N 29°34' W 090°42'0 0.0
2018-Feb-14 06:01N 29°34' W 090°42'0 0.0
2018-Feb-14 05:30N 29°34' W 090°42'0 0.0
2018-Feb-14 05:00N 29°34' W 090°42'0 0.0
2018-Feb-14 04:31N 29°34' W 090°42'0 0.0
2018-Feb-14 04:00N 29°34' W 090°42'0 0.0
2018-Feb-14 03:31N 29°34' W 090°42'0 0.0
2018-Feb-14 03:00N 29°34' W 090°42'0 0.0
2018-Feb-14 02:30N 29°34' W 090°42'0 0.0
2018-Feb-14 02:00N 29°34' W 090°42'0 0.0
2018-Feb-14 01:31N 29°34' W 090°42'0 0.0
2018-Feb-14 01:00N 29°34' W 090°42'0 0.0
2018-Feb-14 00:31N 29°34' W 090°42'0 0.0
2018-Feb-14 00:00N 29°34' W 090°42'0 0.0
2018-Feb-13 23:30N 29°34' W 090°42'0 0.0
2018-Feb-13 23:01N 29°34' W 090°42'0 0.0
2018-Feb-13 22:30N 29°34' W 090°42'0 0.0
2018-Feb-13 22:00N 29°34' W 090°42'0 0.0
2018-Feb-13 21:31N 29°34' W 090°42'0 0.0
2018-Feb-13 21:00N 29°34' W 090°42'0 0.0
2018-Feb-13 20:30N 29°34' W 090°42'0 0.0
2018-Feb-13 20:01N 29°34' W 090°42'0 0.0
2018-Feb-13 19:30N 29°34' W 090°42'0 0.0
2018-Feb-13 19:00N 29°34' W 090°42'0 0.0
2018-Feb-13 18:30N 29°34' W 090°42'0 0.0
2018-Feb-13 18:00N 29°34' W 090°42'0 0.0
2018-Feb-13 17:31N 29°34' W 090°42'0 0.0
2018-Feb-13 17:01N 29°34' W 090°42'0 0.0
2018-Feb-13 16:30N 29°34' W 090°42'0 0.0
2018-Feb-13 16:01N 29°34' W 090°42'1 2.5
2018-Feb-13 15:30N 29°33' W 090°42'0 0.0
2018-Feb-13 15:00N 29°33' W 090°42'0 0.4
2018-Feb-13 14:30N 29°32' W 090°42'1 2.2
2018-Feb-13 14:00N 29°33' W 090°42'0 0.7
2018-Feb-13 13:31N 29°34' W 090°42'1 1.4
2018-Feb-13 13:00N 29°34' W 090°43'3 5.5
2018-Feb-13 12:30N 29°37' W 090°41'4 7.7
2018-Feb-13 12:01N 29°35' W 090°38'4 7.5
2018-Feb-13 11:30N 29°34' W 090°33'  

Dump ship's entire track history